Time;durP1;ratioP1;P1;durP2;ratioP2;P2;SDS_P1;SDS_P2;PMS_P1;PMS_P2;Temp;Humidity;BMP_temperature;BMP_pressure;BME280_temperature;BME280_humidity;BME280_pressure;Samples;Min_cycle;Max_cycle;Signal;HPM_P1;HPM_P2
2021/10/04 00:00:40;;;;;;;14.90;5.80;;;;;;;9.24;48.09;100566.15;27288;1217;3027293;-72
2021/10/04 00:03:10;;;;;;;11.90;5.50;;;;;;;9.22;47.80;100564.44;27230;1217;3051516;-72
2021/10/04 00:05:39;;;;;;;8.80;5.30;;;;;;;9.22;47.87;100564.47;27268;1217;3028247;-70
2021/10/04 00:08:08;;;;;;;8.90;5.30;;;;;;;9.23;47.68;100567.90;27199;1217;3068580;-68
2021/10/04 00:10:50;;;;;;;9.40;5.20;;;;;;;9.24;47.82;100563.89;27246;1218;3050824;-70
2021/10/04 00:13:34;;;;;;;11.30;5.30;;;;;;;9.21;47.88;100568.18;27230;1218;3054446;-71
2021/10/04 00:16:03;;;;;;;11.40;5.10;;;;;;;9.18;47.65;100566.71;27229;1217;3026300;-69
2021/10/04 00:18:32;;;;;;;18.10;5.60;;;;;;;9.17;47.66;100563.78;27219;1218;3047698;-69
2021/10/04 00:21:02;;;;;;;12.10;5.10;;;;;;;9.13;47.92;100560.60;27247;1218;3026711;-72
2021/10/04 00:23:31;;;;;;;9.00;4.80;;;;;;;9.10;48.03;100559.48;27230;1217;3026897;-71
2021/10/04 00:26:00;;;;;;;10.10;4.90;;;;;;;9.08;47.77;100557.98;27244;1217;3051087;-73
2021/10/04 00:28:29;;;;;;;9.80;5.30;;;;;;;9.09;47.82;100557.96;27217;1217;3026300;-69
2021/10/04 00:31:00;;;;;;;10.20;5.50;;;;;;;9.05;48.05;100559.31;27189;1219;3070464;-71
2021/10/04 00:33:29;;;;;;;13.50;5.30;;;;;;;9.00;48.05;100565.45;27234;1219;3026358;-70
2021/10/04 00:35:58;;;;;;;11.10;6.20;;;;;;;8.97;47.97;100565.02;27242;1217;3050549;-74
2021/10/04 00:38:27;;;;;;;14.60;5.30;;;;;;;8.95;48.18;100566.16;27266;1219;3026051;-73
2021/10/04 00:40:56;;;;;;;10.90;5.40;;;;;;;8.94;48.16;100570.56;27406;1217;3055502;-70
2021/10/04 00:43:25;;;;;;;12.00;5.20;;;;;;;8.90;48.37;100569.46;27498;1217;3026060;-68
2021/10/04 00:45:54;;;;;;;9.40;4.90;;;;;;;8.87;48.52;100569.92;27521;1217;3048759;-73
2021/10/04 00:48:23;;;;;;;13.80;4.90;;;;;;;8.83;48.44;100565.36;27371;1217;3027105;-71
2021/10/04 00:50:52;;;;;;;8.70;5.00;;;;;;;8.81;48.51;100563.50;27221;1217;3055575;-72
2021/10/04 00:53:21;;;;;;;13.20;5.50;;;;;;;8.77;48.69;100558.75;27240;1217;3027142;-72
2021/10/04 00:55:50;;;;;;;11.60;4.80;;;;;;;8.73;48.61;100559.94;27232;1217;3051749;-70
2021/10/04 00:58:19;;;;;;;9.30;4.90;;;;;;;8.76;48.45;100567.89;27214;1217;3026300;-72
2021/10/04 01:00:48;;;;;;;10.30;4.70;;;;;;;8.70;48.73;100565.30;27252;1218;3053818;-74
2021/10/04 01:03:17;;;;;;;7.70;4.40;;;;;;;8.65;48.98;100563.90;27244;1217;3026678;-72
2021/10/04 01:05:47;;;;;;;8.70;4.90;;;;;;;8.61;49.09;100563.00;27208;1218;3047745;-72
2021/10/04 01:08:16;;;;;;;10.50;5.00;;;;;;;8.58;49.20;100563.80;27266;1217;3026710;-70
2021/10/04 01:10:52;;;;;;;9.50;5.00;;;;;;;8.54;49.11;100563.73;27249;1218;3070348;-69
2021/10/04 01:13:21;;;;;;;10.00;4.50;;;;;;;8.53;49.29;100561.67;27255;1217;3029500;-70
2021/10/04 01:15:50;;;;;;;12.00;4.90;;;;;;;8.52;49.11;100564.15;27203;1217;3028858;-69
2021/10/04 01:18:18;;;;;;;13.10;4.70;;;;;;;8.45;49.55;100564.23;27262;1217;3067287;-70
2021/10/04 01:20:48;;;;;;;16.50;4.90;;;;;;;8.45;49.61;100562.83;27274;1217;3026491;-74
2021/10/04 01:23:16;;;;;;;11.20;5.00;;;;;;;8.43;49.65;100567.25;27226;1217;3052965;-71
2021/10/04 01:25:45;;;;;;;8.90;4.90;;;;;;;8.38;50.01;100569.85;27198;1217;3028352;-71
2021/10/04 01:28:14;;;;;;;7.80;4.90;;;;;;;8.36;49.95;100566.07;27248;1217;3052183;-72
2021/10/04 01:30:43;;;;;;;15.50;5.00;;;;;;;8.32;50.34;100569.36;27262;1217;3025764;-71
2021/10/04 01:33:12;;;;;;;11.40;4.80;;;;;;;8.30;50.36;100570.11;27260;1218;3051513;-71
2021/10/04 01:35:41;;;;;;;8.70;4.80;;;;;;;8.27;50.83;100565.35;27230;1217;3026073;-70
2021/10/04 01:38:10;;;;;;;11.50;4.80;;;;;;;8.23;50.88;100568.42;27246;1217;3058734;-74
2021/10/04 01:40:43;;;;;;;10.40;5.40;;;;;;;8.16;51.42;100559.61;27206;1217;3028767;-75
2021/10/04 01:43:12;;;;;;;11.80;5.60;;;;;;;8.14;51.40;100562.45;27227;1217;3051855;-71
2021/10/04 01:45:42;;;;;;;14.00;5.20;;;;;;;8.15;51.39;100565.57;27213;1217;3026509;-73
2021/10/04 01:48:11;;;;;;;10.20;5.30;;;;;;;8.16;51.44;100567.25;27255;1217;3026107;-69
2021/10/04 01:50:40;;;;;;;13.20;5.40;;;;;;;8.13;51.75;100564.39;27245;1218;3027628;-70
2021/10/04 01:53:09;;;;;;;12.30;5.50;;;;;;;8.12;51.34;100566.16;27260;1217;3026547;-73
2021/10/04 01:55:38;;;;;;;10.90;5.40;;;;;;;8.15;51.29;100565.71;27222;1217;3051177;-69
2021/10/04 01:58:07;;;;;;;10.10;4.80;;;;;;;8.16;51.50;100559.08;27239;1218;3026556;-73
2021/10/04 02:00:37;;;;;;;10.80;5.60;;;;;;;8.12;51.24;100566.67;27250;1217;3055588;-70
2021/10/04 02:03:06;;;;;;;11.90;5.20;;;;;;;8.12;51.47;100565.98;27243;1218;3027841;-70
2021/10/04 02:05:35;;;;;;;8.20;4.60;;;;;;;8.10;51.77;100569.58;27250;1211;3053461;-70
2021/10/04 02:08:05;;;;;;;10.70;4.70;;;;;;;8.09;51.51;100569.92;27265;1217;3026528;-70
2021/10/04 02:10:38;;;;;;;10.50;5.40;;;;;;;8.11;51.50;100565.52;27277;1220;3053928;-71
2021/10/04 02:13:08;;;;;;;10.70;5.60;;;;;;;8.10;51.69;100566.41;27251;1219;3026375;-74
2021/10/04 02:15:38;;;;;;;8.20;5.20;;;;;;;8.05;51.73;100567.11;27255;1217;3026292;-73
2021/10/04 02:18:08;;;;;;;9.70;4.60;;;;;;;8.04;51.79;100568.73;27201;1217;3027764;-73
2021/10/04 02:20:39;;;;;;;10.10;4.80;;;;;;;8.01;52.04;100573.52;27250;1217;3029052;-72
2021/10/04 02:23:08;;;;;;;10.20;4.80;;;;;;;7.99;51.91;100575.67;27240;1218;3026170;-73
2021/10/04 02:25:39;;;;;;;11.50;5.10;;;;;;;7.97;51.79;100575.56;27227;1217;3028122;-71
2021/10/04 02:28:09;;;;;;;13.00;4.90;;;;;;;7.95;51.81;100578.24;27303;1217;3025813;-71
2021/10/04 02:30:38;;;;;;;9.00;5.30;;;;;;;7.94;51.88;100579.66;27242;1210;3026404;-72
2021/10/04 02:33:07;;;;;;;9.90;5.20;;;;;;;7.89;51.90;100572.50;27262;1217;3028802;-72
2021/10/04 02:35:36;;;;;;;7.10;4.30;;;;;;;7.88;51.79;100579.52;27282;1217;3047879;-72
2021/10/04 02:38:06;;;;;;;12.60;6.00;;;;;;;7.90;51.84;100579.98;27230;1217;3026499;-74
2021/10/04 02:40:34;;;;;;;9.50;5.00;;;;;;;7.88;51.85;100582.63;27237;1217;3026182;-70
2021/10/04 02:43:04;;;;;;;10.50;4.80;;;;;;;7.88;52.07;100581.23;27280;1219;3047733;-72
2021/10/04 02:45:32;;;;;;;8.60;4.80;;;;;;;7.87;52.05;100579.54;27289;1217;3026209;-69
2021/10/04 02:48:02;;;;;;;10.60;5.70;;;;;;;7.88;51.74;100584.04;27216;1218;3070411;-71
2021/10/04 02:50:31;;;;;;;9.40;4.90;;;;;;;7.87;51.93;100585.64;27211;1217;3026933;-71
2021/10/04 02:53:00;;;;;;;13.00;5.50;;;;;;;7.86;51.99;100586.73;27202;1217;3027930;-71
2021/10/04 02:55:28;;;;;;;12.30;5.40;;;;;;;7.86;51.76;100586.89;27245;1219;3068731;-73
2021/10/04 02:57:57;;;;;;;10.60;5.60;;;;;;;7.85;52.10;100590.42;27255;1217;3028932;-70
2021/10/04 03:00:26;;;;;;;9.70;5.20;;;;;;;7.81;52.47;100593.34;27237;1217;3053197;-71
2021/10/04 03:02:56;;;;;;;8.10;5.00;;;;;;;7.80;52.37;100598.63;27193;1217;3026859;-73
2021/10/04 03:05:25;;;;;;;10.90;5.60;;;;;;;7.78;52.58;100594.82;27227;1217;3052091;-69
2021/10/04 03:07:54;;;;;;;12.10;5.70;;;;;;;7.78;52.35;100595.86;27234;1218;3025946;-73
2021/10/04 03:10:23;;;;;;;10.80;5.00;;;;;;;7.71;53.12;100597.83;27268;1218;3049251;-72
2021/10/04 03:12:52;;;;;;;13.70;5.30;;;;;;;7.71;52.53;100596.44;27268;1218;3026924;-72
2021/10/04 03:15:21;;;;;;;13.70;5.90;;;;;;;7.69;52.83;100598.42;27249;1218;3057719;-70
2021/10/04 03:17:52;;;;;;;11.80;5.40;;;;;;;7.66;52.83;100594.84;27238;1218;3025970;-70
2021/10/04 03:20:21;;;;;;;12.70;5.70;;;;;;;7.62;53.23;100598.29;27231;1211;3026291;-71
2021/10/04 03:22:50;;;;;;;11.40;5.90;;;;;;;7.61;53.10;100603.02;27239;1217;3059228;-71
2021/10/04 03:25:19;;;;;;;14.30;5.30;;;;;;;7.64;53.00;100605.70;27231;1217;3026856;-71
2021/10/04 03:27:48;;;;;;;12.50;5.60;;;;;;;7.68;52.83;100604.38;27245;1218;3055012;-74
2021/10/04 03:30:17;;;;;;;12.00;5.40;;;;;;;7.68;52.75;100600.02;27227;1217;3026490;-71
2021/10/04 03:32:46;;;;;;;12.20;5.30;;;;;;;7.66;52.69;100598.66;27271;1218;3051215;-72
2021/10/04 03:35:16;;;;;;;13.70;5.60;;;;;;;7.65;52.93;100604.97;27277;1218;3026013;-70
2021/10/04 03:37:45;;;;;;;16.90;6.20;;;;;;;7.60;53.28;100606.86;27308;1217;3026422;-71
2021/10/04 03:40:14;;;;;;;16.50;5.90;;;;;;;7.57;53.50;100611.49;27284;1219;3051552;-71
2021/10/04 03:42:43;;;;;;;13.10;5.90;;;;;;;7.53;53.87;100615.28;27231;1218;3026095;-72
2021/10/04 03:45:12;;;;;;;17.10;6.20;;;;;;;7.52;53.82;100612.34;27227;1218;3050798;-70
2021/10/04 03:47:41;;;;;;;14.60;5.70;;;;;;;7.57;53.40;100615.86;27312;1218;3025843;-71
2021/10/04 03:50:10;;;;;;;11.60;6.00;;;;;;;7.57;53.93;100613.09;27245;1217;3068111;-73
2021/10/04 03:52:40;;;;;;;12.40;6.90;;;;;;;7.52;54.09;100617.25;27284;1217;3026612;-76
2021/10/04 03:55:09;;;;;;;9.10;5.70;;;;;;;7.55;53.61;100616.45;27277;1217;3026398;-70
2021/10/04 03:57:40;;;;;;;11.50;5.70;;;;;;;7.53;54.10;100615.09;27288;1217;3071250;-71
2021/10/04 04:00:11;;;;;;;13.90;6.50;;;;;;;7.52;53.95;100617.94;27254;1216;3026383;-71
2021/10/04 04:02:41;;;;;;;11.00;6.50;;;;;;;7.53;54.03;100619.81;27273;1218;3026321;-71
2021/10/04 04:05:10;;;;;;;16.60;6.00;;;;;;;7.54;53.89;100618.55;27295;1220;3027260;-71
2021/10/04 04:07:39;;;;;;;14.60;6.20;;;;;;;7.54;54.24;100616.12;27237;1218;3050133;-73
2021/10/04 04:10:09;;;;;;;10.70;5.50;;;;;;;7.55;54.08;100613.29;27209;1218;3026919;-72
2021/10/04 04:12:40;;;;;;;10.20;5.40;;;;;;;7.57;53.89;100611.33;27229;1217;3068851;-73
2021/10/04 04:15:09;;;;;;;12.70;5.40;;;;;;;7.61;53.90;100612.09;27214;1219;3026257;-73
2021/10/04 04:17:39;;;;;;;8.50;5.80;;;;;;;7.62;54.05;100611.55;27222;1218;3052705;-71
2021/10/04 04:20:08;;;;;;;10.50;4.90;;;;;;;7.61;53.99;100611.73;27261;1218;3026413;-72
2021/10/04 04:22:38;;;;;;;11.50;5.00;;;;;;;7.60;54.20;100612.62;27247;1219;3054586;-72
2021/10/04 04:25:07;;;;;;;10.90;5.50;;;;;;;7.62;54.14;100610.33;27242;1219;3027195;-70
2021/10/04 04:27:38;;;;;;;12.20;5.60;;;;;;;7.61;54.35;100612.79;27232;1218;3051476;-71
2021/10/04 04:30:08;;;;;;;12.30;5.80;;;;;;;7.67;53.79;100612.08;27244;1218;3028359;-72
2021/10/04 04:32:38;;;;;;;12.80;6.10;;;;;;;7.73;53.91;100607.52;27222;1219;3055201;-71
2021/10/04 04:35:07;;;;;;;10.00;5.40;;;;;;;7.79;53.43;100607.54;27266;1219;3027908;-72
2021/10/04 04:37:38;;;;;;;14.90;6.30;;;;;;;7.81;53.76;100608.32;27225;1220;3054346;-71
2021/10/04 04:40:10;;;;;;;11.10;6.40;;;;;;;7.83;53.87;100608.77;27260;1219;3028920;-71
2021/10/04 04:42:43;;;;;;;12.40;6.80;;;;;;;7.85;53.76;100611.19;27228;1218;3026299;-71
2021/10/04 04:45:17;;;;;;;17.90;5.90;;;;;;;7.86;53.83;100609.73;27250;1218;3026554;-73
2021/10/04 04:47:47;;;;;;;20.00;8.20;;;;;;;7.90;53.85;100608.39;27214;1219;3051898;-73
2021/10/04 04:50:17;;;;;;;16.00;6.00;;;;;;;7.90;53.57;100607.87;27235;1218;3027846;-72
2021/10/04 04:52:46;;;;;;;8.90;5.80;;;;;;;7.91;53.67;100606.29;27233;1209;3026488;-71
2021/10/04 04:55:15;;;;;;;11.80;5.30;;;;;;;7.93;53.57;100607.80;27268;1217;3028609;-69
2021/10/04 04:57:44;;;;;;;9.50;5.10;;;;;;;7.99;53.31;100608.84;27213;1219;3071306;-70
2021/10/04 05:00:14;;;;;;;12.50;6.00;;;;;;;7.99;53.45;100610.55;27216;1218;3026288;-73
2021/10/04 05:02:44;;;;;;;11.10;5.90;;;;;;;8.02;53.54;100607.33;27279;1218;3051132;-72
2021/10/04 05:05:15;;;;;;;18.10;5.80;;;;;;;8.00;53.45;100608.44;27262;1219;3028866;-72
2021/10/04 05:07:45;;;;;;;11.90;5.50;;;;;;;8.04;53.51;100610.75;27317;1219;3026599;-75
2021/10/04 05:10:14;;;;;;;14.30;5.80;;;;;;;8.06;53.53;100610.70;27257;1217;3026371;-73
2021/10/04 05:12:44;;;;;;;13.20;6.20;;;;;;;8.09;53.46;100616.54;27253;1217;3071244;-73
2021/10/04 05:15:13;;;;;;;14.60;6.20;;;;;;;8.11;53.54;100614.55;27252;1209;3026062;-72
2021/10/04 05:17:42;;;;;;;12.80;6.50;;;;;;;8.15;53.28;100615.80;27206;1219;3051064;-72
2021/10/04 05:20:12;;;;;;;11.10;5.80;;;;;;;8.20;53.12;100616.33;27258;1218;3025983;-73
2021/10/04 05:22:41;;;;;;;19.30;6.10;;;;;;;8.18;53.57;100617.10;27218;1218;3054489;-71
2021/10/04 05:25:10;;;;;;;14.70;6.20;;;;;;;8.28;53.36;100617.50;27266;1219;3026162;-71
2021/10/04 05:27:39;;;;;;;11.20;6.30;;;;;;;8.32;53.39;100618.92;27183;1218;3048122;-71
2021/10/04 05:30:09;;;;;;;14.40;6.00;;;;;;;8.36;53.23;100621.94;27268;1219;3025968;-73
2021/10/04 05:32:38;;;;;;;15.70;6.50;;;;;;;8.42;53.20;100623.13;27236;1217;3058788;-73
2021/10/04 05:35:08;;;;;;;13.10;6.40;;;;;;;8.51;53.01;100623.06;27228;1218;3027008;-76
2021/10/04 05:37:37;;;;;;;15.20;7.20;;;;;;;8.54;53.16;100621.90;27252;1217;3054468;-73
2021/10/04 05:40:06;;;;;;;16.10;6.40;;;;;;;8.63;52.66;100626.13;27216;1219;3026071;-74
2021/10/04 05:42:35;;;;;;;16.20;7.10;;;;;;;8.69;52.59;100625.08;27261;1218;3054630;-74
2021/10/04 05:45:07;;;;;;;12.70;6.50;;;;;;;8.73;52.31;100624.06;27227;1218;3026268;-71
2021/10/04 05:47:39;;;;;;;10.90;5.70;;;;;;;8.80;52.18;100630.12;27230;1218;3026519;-72
2021/10/04 05:50:09;;;;;;;16.50;6.50;;;;;;;8.89;51.76;100632.23;27184;1217;3026866;-74
2021/10/04 05:52:37;;;;;;;12.30;5.90;;;;;;;8.97;51.43;100633.19;27220;1219;3051907;-71
2021/10/04 05:55:07;;;;;;;17.20;6.90;;;;;;;9.04;51.47;100635.73;27217;1219;3026553;-70
2021/10/04 05:57:36;;;;;;;16.70;6.30;;;;;;;9.11;51.36;100637.42;27231;1217;3051479;-70
2021/10/04 06:00:07;;;;;;;14.30;6.50;;;;;;;9.16;51.02;100638.45;27237;1218;3026441;-73
2021/10/04 06:02:36;;;;;;;18.00;6.10;;;;;;;9.25;50.78;100640.05;27204;1217;3050699;-71
2021/10/04 06:05:06;;;;;;;15.20;5.60;;;;;;;9.32;50.94;100646.96;27222;1210;3025833;-71
2021/10/04 06:07:36;;;;;;;9.20;5.90;;;;;;;9.42;50.72;100643.64;27224;1219;3068648;-71
2021/10/04 06:10:07;;;;;;;10.70;5.90;;;;;;;9.46;50.50;100643.83;27208;1221;3027319;-70
2021/10/04 06:12:36;;;;;;;19.30;6.20;;;;;;;9.52;50.15;100647.27;27225;1217;3050156;-73
2021/10/04 06:15:05;;;;;;;15.80;6.50;;;;;;;9.58;49.94;100652.84;27221;1218;3027874;-70
2021/10/04 06:17:36;;;;;;;17.30;6.10;;;;;;;9.67;50.09;100652.52;27207;1218;3053516;-73
2021/10/04 06:20:05;;;;;;;12.10;6.00;;;;;;;9.76;49.42;100656.17;27262;1217;3027021;-73
2021/10/04 06:22:35;;;;;;;14.30;6.60;;;;;;;9.84;49.26;100660.41;27251;1219;3028010;-72
2021/10/04 06:25:06;;;;;;;12.10;6.30;;;;;;;9.95;48.87;100659.81;27206;1219;3026762;-70
2021/10/04 06:27:37;;;;;;;10.70;5.50;;;;;;;10.05;48.78;100662.39;27229;1219;3053062;-70
2021/10/04 06:30:07;;;;;;;12.50;5.60;;;;;;;10.14;48.72;100664.17;27243;1219;3026352;-71
2021/10/04 06:32:38;;;;;;;11.20;6.00;;;;;;;10.20;48.60;100661.80;27231;1218;3053541;-71
2021/10/04 06:35:07;;;;;;;16.60;5.70;;;;;;;10.19;48.92;100666.73;27236;1218;3026975;-72
2021/10/04 06:37:37;;;;;;;10.90;5.90;;;;;;;10.29;48.76;100669.52;27224;1217;3048793;-71
2021/10/04 06:40:06;;;;;;;10.00;5.80;;;;;;;10.33;48.94;100664.60;27302;1218;3028248;-71
2021/10/04 06:42:39;;;;;;;9.90;5.90;;;;;;;10.38;48.61;100666.72;27253;1217;3026972;-72
2021/10/04 06:45:08;;;;;;;16.50;6.10;;;;;;;10.42;48.57;100667.11;27206;1219;3028257;-70
2021/10/04 06:47:37;;;;;;;9.90;5.80;;;;;;;10.52;48.38;100669.99;27332;1218;3055138;-72
2021/10/04 06:50:09;;;;;;;9.60;5.50;;;;;;;10.61;48.20;100669.98;27394;1218;3025827;-70
2021/10/04 06:52:38;;;;;;;17.90;5.80;;;;;;;10.74;48.08;100666.66;27512;1219;3049220;-72
2021/10/04 06:55:08;;;;;;;16.40;5.60;;;;;;;10.87;47.97;100670.45;27438;1219;3027955;-71
2021/10/04 06:57:40;;;;;;;10.80;5.80;;;;;;;10.99;47.58;100667.50;27264;1217;3058151;-73
2021/10/04 07:00:12;;;;;;;15.10;5.40;;;;;;;11.08;47.28;100663.26;27252;1219;3026708;-71
2021/10/04 07:02:41;;;;;;;10.80;6.00;;;;;;;11.24;46.88;100667.11;27224;1218;3026521;-71
2021/10/04 07:05:10;;;;;;;11.30;5.80;;;;;;;11.32;46.94;100664.66;27248;1208;3026724;-72
2021/10/04 07:07:39;;;;;;;13.10;5.70;;;;;;;11.44;46.69;100665.55;27249;1216;3049194;-71
2021/10/04 07:10:08;;;;;;;9.40;5.10;;;;;;;11.54;46.39;100668.63;27237;1216;3028973;-72
2021/10/04 07:12:37;;;;;;;14.30;5.60;;;;;;;11.68;46.64;100664.46;27237;1219;3055681;-72
2021/10/04 07:15:07;;;;;;;13.40;6.10;;;;;;;11.81;46.15;100670.88;27238;1217;3026523;-72
2021/10/04 07:17:36;;;;;;;13.90;6.00;;;;;;;11.90;46.08;100675.38;27218;1217;3055050;-75
2021/10/04 07:20:05;;;;;;;11.10;5.30;;;;;;;11.97;46.20;100671.06;27240;1219;3026879;-73
2021/10/04 07:22:35;;;;;;;12.30;6.20;;;;;;;12.03;46.24;100675.33;27259;1216;3054614;-76
2021/10/04 07:25:07;;;;;;;19.40;6.20;;;;;;;12.12;45.99;100673.33;27245;1217;3027188;-71
2021/10/04 07:27:36;;;;;;;16.30;5.80;;;;;;;12.23;45.67;100672.09;27243;1216;3027041;-72
2021/10/04 07:30:06;;;;;;;12.20;6.10;;;;;;;12.31;45.60;100671.20;27252;1219;3026650;-71
2021/10/04 07:32:35;;;;;;;14.60;5.70;;;;;;;12.40;45.64;100667.03;27252;1218;3054142;-71
2021/10/04 07:35:05;;;;;;;14.90;6.20;;;;;;;12.52;45.85;100671.74;27241;1216;3028421;-71
2021/10/04 07:37:34;;;;;;;10.10;5.20;;;;;;;12.60;45.43;100672.77;27276;1216;3028133;-74
2021/10/04 07:40:04;;;;;;;13.10;5.00;;;;;;;12.65;44.47;100672.65;27236;1218;3028947;-71
2021/10/04 07:42:35;;;;;;;13.60;4.70;;;;;;;12.74;44.07;100672.05;27265;1217;3025892;-74
2021/10/04 07:45:04;;;;;;;12.10;4.60;;;;;;;12.88;44.18;100673.81;27218;1218;3026708;-72
2021/10/04 07:47:34;;;;;;;16.30;4.50;;;;;;;12.98;43.82;100673.27;27250;1219;3054557;-70
2021/10/04 07:50:04;;;;;;;11.40;4.50;;;;;;;13.11;43.48;100674.91;27257;1216;3026320;-71
2021/10/04 07:52:33;;;;;;;12.90;3.90;;;;;;;13.21;42.58;100667.87;27264;1209;3049657;-72
2021/10/04 07:55:04;;;;;;;9.10;4.20;;;;;;;13.35;42.32;100666.98;27218;1203;3026933;-69
2021/10/04 07:57:34;;;;;;;11.30;4.00;;;;;;;13.39;41.57;100667.29;27287;1218;3055133;-72
2021/10/04 08:00:05;;;;;;;8.60;4.20;;;;;;;13.43;41.57;100664.80;27260;1217;3026753;-72
2021/10/04 08:02:41;;;;;;;10.60;3.80;;;;;;;13.51;41.86;100667.88;27235;1218;3055356;-71
2021/10/04 08:05:11;;;;;;;12.00;3.60;;;;;;;13.66;41.30;100664.33;27284;1211;3028354;-68
2021/10/04 08:07:40;;;;;;;6.90;3.60;;;;;;;13.71;41.45;100662.98;27231;1217;3026543;-73
2021/10/04 08:10:10;;;;;;;8.70;4.00;;;;;;;13.83;41.29;100662.14;27246;1216;3025970;-72
2021/10/04 08:12:38;;;;;;;13.50;3.80;;;;;;;13.92;40.36;100660.95;27216;1217;3050605;-72
2021/10/04 08:15:08;;;;;;;9.00;3.60;;;;;;;13.98;39.91;100660.77;27239;1218;3026021;-75
2021/10/04 08:17:37;;;;;;;11.20;4.00;;;;;;;14.07;40.19;100659.58;27226;1219;3054147;-74
2021/10/04 08:20:10;;;;;;;12.70;3.80;;;;;;;14.22;39.96;100659.25;27204;1216;3028232;-70
2021/10/04 08:22:39;;;;;;;8.90;3.40;;;;;;;14.33;39.28;100663.41;27199;1219;3053375;-70
2021/10/04 08:25:10;;;;;;;10.10;3.50;;;;;;;14.43;39.54;100656.49;27246;1209;3026418;-73
2021/10/04 08:27:39;;;;;;;7.90;2.90;;;;;;;14.49;38.25;100656.31;27261;1217;3055794;-70
2021/10/04 08:30:08;;;;;;;5.70;2.90;;;;;;;14.52;38.45;100653.67;27246;1218;3025928;-69
2021/10/04 08:32:39;;;;;;;10.30;3.00;;;;;;;14.57;38.25;100653.02;27213;1216;3053397;-71
2021/10/04 08:35:08;;;;;;;6.70;3.00;;;;;;;14.61;37.89;100654.18;27240;1217;3028370;-69
2021/10/04 08:37:37;;;;;;;11.50;3.40;;;;;;;14.73;37.52;100649.79;27219;1216;3027791;-74
2021/10/04 08:40:10;;;;;;;7.50;3.00;;;;;;;14.87;36.52;100651.80;27240;1216;3027486;-74
2021/10/04 08:42:39;;;;;;;8.20;2.50;;;;;;;14.98;34.87;100652.39;27204;1218;3056324;-71
2021/10/04 08:45:08;;;;;;;7.00;2.80;;;;;;;15.07;34.48;100648.49;27242;1217;3028410;-68
2021/10/04 08:47:39;;;;;;;15.00;3.40;;;;;;;15.21;34.52;100645.52;27244;1217;3051978;-68
2021/10/04 08:50:10;;;;;;;7.90;3.10;;;;;;;15.34;34.20;100643.52;27291;1218;3026479;-71
2021/10/04 08:52:40;;;;;;;9.30;3.00;;;;;;;15.40;34.21;100645.64;27225;1219;3026806;-70
2021/10/04 08:55:09;;;;;;;5.70;2.60;;;;;;;15.43;33.70;100642.94;27223;1219;3026232;-70
2021/10/04 08:57:39;;;;;;;8.60;3.00;;;;;;;15.55;34.06;100644.19;27236;1214;3026187;-68
2021/10/04 09:00:08;;;;;;;5.70;2.50;;;;;;;15.58;34.24;100639.57;27196;1217;3026956;-70
2021/10/04 09:02:38;;;;;;;7.20;2.90;;;;;;;15.59;34.67;100642.15;27280;1219;3051728;-73
2021/10/04 09:05:18;;;;;;;8.10;3.10;;;;;;;15.65;34.61;100638.25;27208;1216;3026255;-71
2021/10/04 09:07:48;;;;;;;7.90;3.00;;;;;;;15.81;34.46;100636.36;27203;1219;3049781;-70
2021/10/04 09:10:22;;;;;;;7.20;2.60;;;;;;;15.94;34.08;100638.18;27212;1219;3026560;-69
2021/10/04 09:12:54;;;;;;;6.90;2.90;;;;;;;16.05;33.45;100640.31;27213;1218;3052666;-71
2021/10/04 09:15:49;;;;;;;6.60;3.10;;;;;;;16.12;33.67;100633.48;27253;1217;3025815;-71
2021/10/04 09:18:24;;;;;;;9.20;3.00;;;;;;;16.15;33.48;100636.84;27246;1218;3048508;-70
2021/10/04 09:20:53;;;;;;;10.30;3.10;;;;;;;16.15;33.58;100628.88;27220;1216;3052805;-68
2021/10/04 09:23:44;;;;;;;6.20;2.60;;;;;;;16.29;33.15;100626.21;27226;1209;3026847;-69
2021/10/04 09:26:21;;;;;;;7.00;2.80;;;;;;;16.48;32.93;100627.42;27275;1217;3048833;-71
2021/10/04 09:28:57;;;;;;;7.60;2.80;;;;;;;16.46;32.42;100626.70;27239;1209;3055030;-70
2021/10/04 09:31:29;;;;;;;6.70;2.40;;;;;;;16.41;32.14;100622.91;27193;1219;3056451;-70
2021/10/04 09:33:58;;;;;;;7.90;3.00;;;;;;;16.22;31.87;100621.55;27264;1216;3028091;-68
2021/10/04 09:36:29;;;;;;;8.70;2.50;;;;;;;16.11;31.92;100623.86;27195;1217;3027729;-72
2021/10/04 09:39:22;;;;;;;7.90;2.70;;;;;;;15.99;32.15;100619.15;27269;1217;3051955;-69
2021/10/04 09:41:58;;;;;;;8.10;2.50;;;;;;;15.95;32.12;100621.89;27205;1219;3058323;-70
2021/10/04 09:44:48;;;;;;;5.20;2.50;;;;;;;15.88;32.37;100619.69;27229;1218;3052181;-70
2021/10/04 09:47:20;;;;;;;10.90;2.30;;;;;;;15.92;32.39;100621.70;27230;1222;3053111;-73
2021/10/04 09:49:53;;;;;;;8.40;2.40;;;;;;;15.90;32.50;100616.90;27183;1219;3026144;-69
2021/10/04 09:52:55;;;;;;;6.50;2.60;;;;;;;16.09;32.09;100615.10;27208;1219;3025942;-71
2021/10/04 09:55:32;;;;;;;5.30;2.60;;;;;;;16.32;31.69;100613.28;27099;1222;3051632;-71
2021/10/04 09:58:15;;;;;;;7.10;2.40;;;;;;;16.44;31.31;100607.86;27107;1222;3051931;-70
2021/10/04 10:00:54;;;;;;;9.70;2.70;;;;;;;16.41;31.51;100612.47;27168;1222;3055235;-73
2021/10/04 10:03:29;;;;;;;7.70;2.70;;;;;;;16.38;31.43;100610.91;27065;1222;3058164;-72
2021/10/04 10:05:58;;;;;;;8.60;2.60;;;;;;;16.33;31.33;100609.13;27103;1223;3049554;-68
2021/10/04 10:08:28;;;;;;;6.00;2.10;;;;;;;16.38;31.69;100606.16;27090;1226;3027220;-69
2021/10/04 10:11:04;;;;;;;7.10;2.40;;;;;;;16.37;31.10;100599.33;27126;1222;3025887;-71
2021/10/04 10:13:35;;;;;;;5.20;2.30;;;;;;;16.47;30.59;100601.68;27077;1222;3067864;-72
2021/10/04 10:16:09;;;;;;;5.40;2.10;;;;;;;16.57;30.80;100594.93;27249;1222;3026276;-67
2021/10/04 10:18:42;;;;;;;8.20;2.20;;;;;;;16.64;30.97;100594.88;27071;1222;3053468;-66
2021/10/04 10:21:22;;;;;;;4.40;2.20;;;;;;;16.58;29.99;100589.94;27086;1224;3052387;-72
2021/10/04 10:24:01;;;;;;;6.50;2.40;;;;;;;16.53;30.25;100589.96;27096;1222;3056298;-68
2021/10/04 10:26:36;;;;;;;4.20;2.10;;;;;;;16.48;30.78;100579.69;27066;1222;3049398;-67
2021/10/04 10:29:17;;;;;;;4.60;2.20;;;;;;;16.33;30.88;100581.90;27071;1221;3052350;-70
2021/10/04 10:31:52;;;;;;;7.90;2.70;;;;;;;16.34;31.14;100579.91;27188;1218;3051477;-72
2021/10/04 10:34:30;;;;;;;8.50;2.10;;;;;;;16.40;30.78;100579.35;27336;1217;3069293;-68
2021/10/04 10:37:18;;;;;;;6.90;1.90;;;;;;;16.53;30.45;100576.86;27406;1217;3050341;-66
2021/10/04 10:39:58;;;;;;;7.10;2.50;;;;;;;16.56;29.98;100576.30;27385;1215;3054952;-72
2021/10/04 10:42:28;;;;;;;4.20;2.00;;;;;;;16.76;29.63;100570.84;27257;1216;3052772;-72
2021/10/04 10:44:57;;;;;;;7.30;2.10;;;;;;;16.82;29.18;100569.91;27309;1215;3025889;-65
2021/10/04 10:47:41;;;;;;;4.00;2.10;;;;;;;16.83;29.12;100571.27;27290;1216;3026184;-68
2021/10/04 10:50:13;;;;;;;8.40;2.40;;;;;;;16.77;29.57;100569.05;27240;1215;3051551;-68
2021/10/04 10:52:46;;;;;;;9.70;2.40;;;;;;;16.65;29.85;100564.89;27325;1216;3027600;-71
2021/10/04 10:55:18;;;;;;;9.80;2.40;;;;;;;16.66;29.80;100570.52;27317;1216;3026039;-74
2021/10/04 10:57:59;;;;;;;8.30;2.20;;;;;;;16.57;30.06;100566.88;27311;1217;3028437;-69
2021/10/04 11:00:33;;;;;;;6.70;2.10;;;;;;;16.54;29.90;100568.30;27335;1215;3049634;-70
2021/10/04 11:03:15;;;;;;;5.70;2.40;;;;;;;16.53;30.52;100563.97;27264;1216;3069388;-72
2021/10/04 11:05:47;;;;;;;;;;;;;;;16.48;30.63;100566.41;27321;1216;3051075;-70
2021/10/04 11:08:29;;;;;;;7.10;2.40;;;;;;;16.35;31.15;100566.42;27232;1217;3026074;-70
2021/10/04 11:10:58;;;;;;;18.10;2.40;;;;;;;16.36;31.00;100562.25;27322;1215;3055843;-72
2021/10/04 11:14:13;;;;;;;9.10;2.30;;;;;;;16.36;30.71;100559.44;27290;1217;3058945;-67
2021/10/04 11:16:55;;;;;;;10.10;2.40;;;;;;;16.29;31.39;100562.77;27292;1217;3049275;-71
2021/10/04 11:19:31;;;;;;;7.70;2.50;;;;;;;16.22;31.69;100563.34;27309;1217;3053522;-71
2021/10/04 11:22:00;;;;;;;8.10;2.30;;;;;;;16.17;31.55;100559.63;27281;1218;3053742;-73
2021/10/04 11:24:29;;;;;;;10.30;2.50;;;;;;;16.16;31.82;100557.41;27256;1218;3028092;-72
2021/10/04 11:27:00;;;;;;;10.60;2.30;;;;;;;16.20;31.94;100552.70;27282;1218;3052433;-71